createdAt,value
2023-05-05T00:00:19.370Z,206.88
2023-05-05T00:01:19.428Z,206.65
2023-05-05T00:02:19.545Z,208.37
2023-05-05T00:03:19.568Z,206.63
2023-05-05T00:04:19.627Z,206.66
2023-05-05T00:05:19.618Z,205.76
2023-05-05T00:06:19.685Z,207.73
2023-05-05T00:07:19.728Z,207.88
2023-05-05T00:08:19.781Z,207.71
2023-05-05T00:09:19.841Z,206.92
2023-05-05T00:10:20.766Z,207.74
2023-05-05T00:11:19.952Z,206.75
2023-05-05T00:12:20.011Z,206.56
2023-05-05T00:13:20.056Z,207.54
2023-05-05T00:14:20.104Z,207.33
2023-05-05T00:15:20.159Z,207.05
2023-05-05T00:16:20.396Z,206.44
2023-05-05T00:17:20.293Z,206.96
2023-05-05T00:18:20.324Z,206.95
2023-05-05T00:19:20.384Z,205.50
2023-05-05T00:20:20.454Z,207.74
2023-05-05T00:21:20.498Z,207.89
2023-05-05T00:22:20.564Z,207.54
2023-05-05T00:23:20.641Z,208.54
2023-05-05T00:24:20.684Z,206.36
2023-05-05T00:25:20.745Z,206.60
2023-05-05T00:26:20.812Z,206.68
2023-05-05T00:27:20.874Z,208.57
2023-05-05T00:28:21.002Z,207.33
2023-05-05T00:29:20.996Z,206.99
2023-05-05T00:30:21.054Z,205.79
2023-05-05T00:31:21.154Z,208.24
2023-05-05T00:32:21.208Z,208.46
2023-05-05T00:33:21.222Z,206.03
2023-05-05T00:34:21.271Z,206.09
2023-05-05T00:35:21.322Z,207.25
2023-05-05T00:36:21.401Z,206.42
2023-05-05T00:37:21.423Z,206.94
2023-05-05T00:38:21.473Z,205.70
2023-05-05T00:39:21.567Z,206.41
2023-05-05T00:40:21.571Z,207.07
2023-05-05T00:41:21.626Z,207.56
2023-05-05T00:42:21.672Z,207.77
2023-05-05T00:43:21.752Z,206.39
2023-05-05T00:44:21.763Z,207.45
2023-05-05T00:45:21.816Z,207.19
2023-05-05T00:46:21.903Z,207.02
2023-05-05T00:47:21.911Z,207.68
2023-05-05T00:48:21.978Z,207.03
2023-05-05T00:49:22.114Z,206.29
2023-05-05T00:50:22.093Z,206.77
2023-05-05T00:51:22.166Z,207.56
2023-05-05T00:52:22.213Z,207.47
2023-05-05T00:53:22.270Z,206.20
2023-05-05T00:54:22.346Z,207.08
2023-05-05T00:55:22.387Z,208.52
2023-05-05T00:56:22.465Z,206.33
2023-05-05T00:57:22.517Z,206.05
2023-05-05T00:58:22.567Z,206.80
2023-05-05T00:59:22.633Z,206.73
2023-05-05T01:00:22.697Z,207.17
2023-05-05T01:01:22.747Z,205.34
2023-05-05T01:02:22.820Z,208.38
2023-05-05T01:03:22.920Z,205.66
2023-05-05T01:04:22.899Z,205.58
2023-05-05T01:05:22.951Z,207.08
2023-05-05T01:06:22.999Z,206.45
2023-05-05T01:07:23.044Z,207.76
2023-05-05T01:08:23.091Z,207.08
2023-05-05T01:09:23.152Z,205.96
2023-05-05T01:10:23.436Z,206.14
2023-05-05T01:11:23.269Z,206.55
2023-05-05T01:12:23.329Z,205.35
2023-05-05T01:13:23.406Z,206.18
2023-05-05T01:14:23.449Z,205.90
2023-05-05T01:15:23.520Z,206.17
2023-05-05T01:16:23.637Z,207.09
2023-05-05T01:17:23.669Z,206.57
2023-05-05T01:18:23.684Z,207.30
2023-05-05T01:19:23.760Z,206.00
2023-05-05T01:20:23.815Z,207.29
2023-05-05T01:21:23.875Z,207.68
2023-05-05T01:22:23.927Z,207.65
2023-05-05T01:23:23.981Z,207.06
2023-05-05T01:24:24.036Z,207.23
2023-05-05T01:25:24.106Z,205.71
2023-05-05T01:26:24.147Z,205.70
2023-05-05T01:27:24.197Z,206.14
2023-05-05T01:28:24.249Z,206.40
2023-05-05T01:29:24.312Z,206.20
2023-05-05T01:30:24.361Z,205.53
2023-05-05T01:31:24.431Z,205.97
2023-05-05T01:32:24.534Z,206.85
2023-05-05T01:33:24.537Z,206.31
2023-05-05T01:34:24.607Z,206.46
2023-05-05T01:35:24.641Z,205.86
2023-05-05T01:36:24.683Z,207.33
2023-05-05T01:37:24.735Z,207.00
2023-05-05T01:38:24.786Z,207.75
2023-05-05T01:39:24.831Z,206.00
2023-05-05T01:40:24.876Z,207.24
2023-05-05T01:41:24.932Z,205.90
2023-05-05T01:42:24.991Z,206.70
2023-05-05T01:43:25.020Z,206.50
2023-05-05T01:44:25.063Z,204.64
2023-05-05T01:45:25.126Z,206.79
2023-05-05T01:46:25.166Z,206.42
2023-05-05T01:47:25.242Z,206.67
2023-05-05T01:48:25.255Z,206.78
2023-05-05T01:49:25.320Z,207.80
2023-05-05T01:50:25.368Z,206.17
2023-05-05T01:51:25.418Z,206.86
2023-05-05T01:52:25.458Z,206.22
2023-05-05T01:53:25.513Z,206.78
2023-05-05T01:54:25.564Z,206.55
2023-05-05T01:55:25.617Z,205.89
2023-05-05T01:56:25.672Z,207.04
2023-05-05T01:57:25.715Z,207.12
2023-05-05T01:58:25.768Z,205.91
2023-05-05T01:59:25.815Z,207.40
2023-05-05T02:00:25.873Z,205.69
2023-05-05T02:01:25.949Z,207.23
2023-05-05T02:02:26.033Z,206.44
2023-05-05T02:03:26.058Z,205.47
2023-05-05T02:04:26.077Z,206.97
2023-05-05T02:05:26.134Z,205.85
2023-05-05T02:06:26.213Z,206.23
2023-05-05T02:07:26.267Z,206.76
2023-05-05T02:08:26.339Z,206.45
2023-05-05T02:09:26.362Z,206.48
2023-05-05T02:10:26.426Z,206.95
2023-05-05T02:11:26.477Z,207.34
2023-05-05T02:12:26.527Z,206.52
2023-05-05T02:13:26.631Z,206.59
2023-05-05T02:14:26.626Z,206.53
2023-05-05T02:15:26.679Z,206.97
2023-05-05T02:16:26.732Z,205.35
2023-05-05T02:17:26.807Z,205.69
2023-05-05T02:18:26.840Z,205.52
2023-05-05T02:19:26.887Z,205.83
2023-05-05T02:20:26.952Z,206.34
2023-05-05T02:21:27.004Z,205.71
2023-05-05T02:22:27.051Z,205.04
2023-05-05T02:23:27.103Z,206.55
2023-05-05T02:24:27.152Z,207.09
2023-05-05T02:25:27.203Z,205.70
2023-05-05T02:26:27.256Z,205.41
2023-05-05T02:27:27.304Z,205.52
2023-05-05T02:28:27.366Z,206.25
2023-05-05T02:29:27.412Z,206.21
2023-05-05T02:30:27.444Z,206.88
2023-05-05T02:31:27.601Z,205.34
2023-05-05T02:32:27.591Z,206.76
2023-05-05T02:33:27.595Z,205.64
2023-05-05T02:34:27.640Z,205.34
2023-05-05T02:35:27.689Z,205.41
2023-05-05T02:36:27.798Z,205.99
2023-05-05T02:37:27.801Z,204.85
2023-05-05T02:38:27.853Z,206.31
2023-05-05T02:39:27.909Z,205.58
2023-05-05T02:40:27.958Z,204.48
2023-05-05T02:41:28.007Z,204.99
2023-05-05T02:42:28.072Z,204.09
2023-05-05T02:43:28.125Z,204.75
2023-05-05T02:44:28.187Z,205.11
2023-05-05T02:45:28.256Z,205.00
2023-05-05T02:46:28.362Z,205.05
2023-05-05T02:47:28.365Z,206.56
2023-05-05T02:48:28.406Z,205.04
2023-05-05T02:49:28.445Z,203.77
2023-05-05T02:50:28.473Z,204.00
2023-05-05T02:51:28.518Z,204.73
2023-05-05T02:52:28.571Z,205.24
2023-05-05T02:53:28.625Z,205.24
2023-05-05T02:54:28.683Z,203.35
2023-05-05T02:55:28.745Z,204.64
2023-05-05T02:56:28.777Z,203.29
2023-05-05T02:57:28.827Z,204.18
2023-05-05T02:58:28.887Z,203.68
2023-05-05T02:59:28.947Z,205.42
2023-05-05T03:00:29.004Z,205.77
2023-05-05T03:01:29.116Z,203.76
2023-05-05T03:02:29.246Z,204.57
2023-05-05T03:03:29.272Z,206.28
2023-05-05T03:04:29.242Z,204.66
2023-05-05T03:05:29.256Z,203.51
2023-05-05T03:06:29.323Z,205.15
2023-05-05T03:07:29.374Z,202.58
2023-05-05T03:08:29.421Z,202.73
2023-05-05T03:09:29.490Z,203.83
2023-05-05T03:10:29.546Z,202.66
2023-05-05T03:11:29.597Z,205.56
2023-05-05T03:12:29.677Z,203.51
2023-05-05T03:13:29.686Z,203.69
2023-05-05T03:14:32.772Z,203.56
2023-05-05T03:15:29.745Z,204.61
2023-05-05T03:16:29.793Z,205.92
2023-05-05T03:17:29.762Z,204.64
2023-05-05T03:18:29.824Z,204.41
2023-05-05T03:19:29.780Z,203.89
2023-05-05T03:20:29.780Z,204.05
2023-05-05T03:21:29.792Z,203.20
2023-05-05T03:22:29.784Z,203.24
2023-05-05T03:23:29.796Z,204.47
2023-05-05T03:24:29.813Z,202.55
2023-05-05T03:25:29.812Z,203.66
2023-05-05T03:26:29.808Z,203.83
2023-05-05T03:27:29.829Z,203.06
2023-05-05T03:28:29.830Z,204.04
2023-05-05T03:29:29.822Z,203.20
2023-05-05T03:30:29.825Z,202.47
2023-05-05T03:31:29.867Z,203.33
2023-05-05T03:32:29.888Z,203.03
2023-05-05T03:33:29.851Z,203.93
2023-05-05T03:34:29.846Z,203.72
2023-05-05T03:35:29.871Z,203.56
2023-05-05T03:36:29.865Z,202.60
2023-05-05T03:37:29.870Z,202.04
2023-05-05T03:38:29.884Z,201.45
2023-05-05T03:39:29.882Z,201.15
2023-05-05T03:40:42.964Z,202.79
2023-05-05T03:41:30.907Z,202.92
2023-05-05T03:42:29.902Z,203.28
2023-05-05T03:43:29.911Z,203.28
2023-05-05T03:44:29.913Z,202.94
2023-05-05T03:45:29.985Z,205.43
2023-05-05T03:46:29.944Z,203.34
2023-05-05T03:47:29.970Z,204.68
2023-05-05T03:48:29.939Z,204.28
2023-05-05T03:49:29.948Z,203.12
2023-05-05T03:50:29.948Z,201.93
2023-05-05T03:51:29.957Z,201.83
2023-05-05T03:52:29.953Z,202.82
2023-05-05T03:53:29.993Z,202.47
2023-05-05T03:54:30.025Z,201.54
2023-05-05T03:55:30.077Z,202.33
2023-05-05T03:56:30.110Z,203.10
2023-05-05T03:57:30.159Z,203.05
2023-05-05T03:58:30.209Z,202.35
2023-05-05T03:59:30.263Z,203.68
2023-05-05T04:00:30.841Z,202.44
2023-05-05T04:01:30.353Z,202.11
2023-05-05T04:02:30.474Z,201.73
2023-05-05T04:03:30.745Z,201.95
2023-05-05T04:04:30.552Z,201.93
2023-05-05T04:05:30.535Z,200.39
2023-05-05T04:06:30.583Z,202.61
2023-05-05T04:07:30.624Z,201.69
2023-05-05T04:08:30.677Z,203.16
2023-05-05T04:09:30.723Z,202.66
2023-05-05T04:10:30.780Z,202.22
2023-05-05T04:11:30.823Z,200.64
2023-05-05T04:12:30.918Z,200.27
2023-05-05T04:13:30.926Z,202.20
2023-05-05T04:14:30.975Z,201.25
2023-05-05T04:15:31.015Z,200.78
2023-05-05T04:16:31.188Z,200.53
2023-05-05T04:17:31.112Z,202.29
2023-05-05T04:18:31.177Z,201.68
2023-05-05T04:19:31.223Z,201.89
2023-05-05T04:20:31.275Z,200.65
2023-05-05T04:21:31.324Z,200.16
2023-05-05T04:22:31.366Z,201.77
2023-05-05T04:23:31.425Z,201.06
2023-05-05T04:24:31.473Z,202.07
2023-05-05T04:25:31.549Z,201.56
2023-05-05T04:26:31.576Z,199.53
2023-05-05T04:27:31.610Z,202.02
2023-05-05T04:28:31.723Z,200.55
2023-05-05T04:29:31.710Z,201.06
2023-05-05T04:30:31.758Z,200.50
2023-05-05T04:31:31.834Z,200.94
2023-05-05T04:32:31.899Z,201.14
2023-05-05T04:33:31.898Z,201.21
2023-05-05T04:34:31.956Z,201.78
2023-05-05T04:35:32.012Z,201.53
2023-05-05T04:36:32.062Z,199.87
2023-05-05T04:37:32.118Z,201.47
2023-05-05T04:38:32.192Z,199.24
2023-05-05T04:39:32.221Z,202.08
2023-05-05T04:40:32.291Z,201.65
2023-05-05T04:41:32.325Z,199.52
2023-05-05T04:42:32.377Z,200.79
2023-05-05T04:43:32.432Z,199.81
2023-05-05T04:44:32.475Z,199.65
2023-05-05T04:45:32.529Z,199.68
2023-05-05T04:46:32.586Z,200.25
2023-05-05T04:47:32.637Z,200.19
2023-05-05T04:48:32.767Z,201.34
2023-05-05T04:49:32.801Z,200.61
2023-05-05T04:50:32.825Z,200.53
2023-05-05T04:51:32.867Z,201.26
2023-05-05T04:52:32.877Z,200.90
2023-05-05T04:53:32.919Z,198.90
2023-05-05T04:54:32.976Z,198.91
2023-05-05T04:55:33.037Z,199.87
2023-05-05T04:56:33.102Z,199.17
2023-05-05T04:57:33.153Z,200.86
2023-05-05T04:58:33.201Z,199.81
2023-05-05T04:59:33.253Z,199.30
2023-05-05T05:00:33.310Z,199.67
2023-05-05T05:01:33.462Z,200.68
2023-05-05T05:02:33.492Z,199.47
2023-05-05T05:03:33.595Z,198.20
2023-05-05T05:04:33.550Z,200.83
2023-05-05T05:05:33.605Z,199.25
2023-05-05T05:06:33.617Z,199.74
2023-05-05T05:07:33.676Z,200.37
2023-05-05T05:08:33.725Z,199.55
2023-05-05T05:09:33.768Z,199.01
2023-05-05T05:10:33.824Z,199.79
2023-05-05T05:11:33.884Z,197.77
2023-05-05T05:12:33.943Z,199.52
2023-05-05T05:13:33.954Z,198.44
2023-05-05T05:14:34.876Z,197.97
2023-05-05T05:15:34.045Z,199.43
2023-05-05T05:16:34.128Z,200.31
2023-05-05T05:17:34.169Z,199.39
2023-05-05T05:18:34.224Z,199.44
2023-05-05T05:19:34.263Z,196.01
2023-05-05T05:20:34.347Z,197.02
2023-05-05T05:21:34.366Z,197.86
2023-05-05T05:22:34.409Z,183.08
2023-05-05T05:23:34.456Z,176.30
2023-05-05T05:24:34.524Z,169.02
2023-05-05T05:25:34.584Z,152.98
2023-05-05T05:26:34.657Z,147.11
2023-05-05T05:27:34.731Z,138.41
2023-05-05T05:28:34.798Z,132.92
2023-05-05T05:29:34.880Z,131.91
2023-05-05T05:30:34.972Z,117.98
2023-05-05T05:31:35.843Z,107.62
2023-05-05T05:32:35.153Z,113.34
2023-05-05T05:33:35.202Z,106.50
2023-05-05T05:34:35.287Z,115.80
2023-05-05T05:35:35.362Z,130.47
2023-05-05T05:36:35.428Z,137.06
2023-05-05T05:37:35.491Z,143.76
2023-05-05T05:38:35.571Z,148.20
2023-05-05T05:39:35.615Z,154.97
2023-05-05T05:40:35.663Z,156.56
2023-05-05T05:41:35.720Z,158.53
2023-05-05T05:42:35.862Z,160.46
2023-05-05T05:43:35.831Z,164.78
2023-05-05T05:44:35.861Z,167.19
2023-05-05T05:45:35.909Z,171.08
2023-05-05T05:46:36.040Z,172.47
2023-05-05T05:47:36.024Z,175.73
2023-05-05T05:48:36.034Z,178.40
2023-05-05T05:49:36.081Z,179.13
2023-05-05T05:50:36.115Z,174.64
2023-05-05T05:51:36.164Z,175.91
2023-05-05T05:52:36.193Z,180.42
2023-05-05T05:53:36.239Z,181.80
2023-05-05T05:54:36.270Z,184.00
2023-05-05T05:55:36.311Z,182.36
2023-05-05T05:56:36.347Z,159.73
2023-05-05T05:57:36.393Z,132.58
2023-05-05T05:58:36.457Z,103.06
2023-05-05T05:59:36.523Z,82.46
2023-05-05T06:00:36.576Z,61.74
2023-05-05T06:01:36.647Z,39.70
2023-05-05T06:02:36.790Z,43.50
2023-05-05T06:03:36.791Z,34.58
2023-05-05T06:04:36.879Z,30.43
2023-05-05T06:05:36.900Z,27.13
2023-05-05T06:06:36.943Z,33.79
2023-05-05T06:07:36.992Z,35.60
2023-05-05T06:08:37.040Z,32.52
2023-05-05T06:09:37.091Z,43.10
2023-05-05T06:10:37.143Z,53.36
2023-05-05T06:11:37.184Z,59.05
2023-05-05T06:12:37.261Z,57.49
2023-05-05T06:13:37.234Z,60.44
2023-05-05T06:14:37.274Z,66.94
2023-05-05T06:15:37.318Z,72.25
2023-05-05T06:16:37.308Z,73.43
2023-05-05T06:17:37.319Z,73.67
2023-05-05T06:18:37.338Z,77.98
2023-05-05T06:19:37.342Z,78.30
2023-05-05T06:20:37.358Z,77.42
2023-05-05T06:21:37.359Z,68.11
2023-05-05T06:22:37.390Z,47.79
2023-05-05T06:23:37.405Z,36.06
2023-05-05T06:24:37.429Z,26.26
2023-05-05T06:25:37.450Z,19.30
2023-05-05T06:26:37.457Z,25.00
2023-05-05T06:27:37.482Z,31.33
2023-05-05T06:28:37.526Z,45.10
2023-05-05T06:29:37.530Z,51.46
2023-05-05T06:30:37.544Z,51.52
2023-05-05T06:31:37.630Z,54.13
2023-05-05T06:32:37.578Z,44.51
2023-05-05T06:33:37.572Z,41.97
2023-05-05T06:34:37.593Z,46.33
2023-05-05T06:35:37.597Z,46.23
2023-05-05T06:36:37.675Z,48.84
2023-05-05T06:37:37.615Z,50.53
2023-05-05T06:38:37.628Z,58.94
2023-05-05T06:39:37.646Z,60.45
2023-05-05T06:40:37.660Z,63.92
2023-05-05T06:41:37.716Z,70.99
2023-05-05T06:42:37.649Z,73.85
2023-05-05T06:43:37.658Z,77.94
2023-05-05T06:44:37.674Z,80.08
2023-05-05T06:45:37.712Z,85.20
2023-05-05T06:46:37.838Z,92.41
2023-05-05T06:47:37.819Z,95.65
2023-05-05T06:48:37.822Z,97.72
2023-05-05T06:49:37.863Z,99.82
2023-05-05T06:50:37.918Z,103.91
2023-05-05T06:51:37.961Z,109.87
2023-05-05T06:52:37.973Z,110.32
2023-05-05T06:53:38.032Z,116.39
2023-05-05T06:54:38.143Z,118.88
2023-05-05T06:55:38.911Z,122.88
2023-05-05T06:56:38.103Z,125.07
2023-05-05T06:57:38.102Z,129.34
2023-05-05T06:58:38.080Z,129.51
2023-05-05T06:59:38.075Z,130.09
2023-05-05T07:00:38.085Z,129.64
2023-05-05T07:01:38.066Z,130.96
2023-05-05T07:02:38.091Z,134.06
2023-05-05T07:03:38.074Z,138.38
2023-05-05T07:04:38.079Z,145.68
2023-05-05T07:05:38.051Z,147.68
2023-05-05T07:06:38.047Z,155.28
2023-05-05T07:07:38.043Z,172.13
2023-05-05T07:08:38.023Z,170.51
2023-05-05T07:09:38.015Z,168.90
2023-05-05T07:10:38.145Z,169.69
2023-05-05T07:11:38.109Z,168.77
2023-05-05T07:12:38.160Z,169.77
2023-05-05T07:13:38.159Z,169.91
2023-05-05T07:14:38.134Z,170.13
2023-05-05T07:15:38.136Z,170.88
2023-05-05T07:16:38.165Z,173.32
2023-05-05T07:17:38.989Z,178.43
2023-05-05T07:18:38.126Z,178.46
2023-05-05T07:19:38.144Z,186.58
2023-05-05T07:20:38.105Z,191.44
2023-05-05T07:21:38.100Z,194.69
2023-05-05T07:22:38.082Z,183.14
2023-05-05T07:23:38.082Z,189.20
2023-05-05T07:24:38.082Z,192.07
2023-05-05T07:25:38.129Z,192.04
2023-05-05T07:26:38.312Z,193.92
2023-05-05T07:27:38.211Z,197.92
2023-05-05T07:28:38.278Z,199.63
2023-05-05T07:29:38.352Z,203.11
2023-05-05T07:30:38.376Z,204.56
2023-05-05T07:31:38.464Z,201.71
2023-05-05T07:32:38.505Z,201.79
2023-05-05T07:33:38.495Z,202.08
2023-05-05T07:34:39.474Z,202.14
2023-05-05T07:35:38.473Z,202.98
2023-05-05T07:36:38.514Z,206.40
2023-05-05T07:37:38.468Z,210.71
2023-05-05T07:38:38.455Z,219.34
2023-05-05T07:39:38.430Z,202.51
2023-05-05T07:40:38.413Z,204.88
2023-05-05T07:41:38.412Z,202.68
2023-05-05T07:42:38.522Z,206.07
2023-05-05T07:43:39.384Z,210.24
2023-05-05T07:44:38.366Z,218.26
2023-05-05T07:45:38.361Z,235.76
2023-05-05T07:46:38.391Z,239.88
2023-05-05T07:47:38.419Z,240.09
2023-05-05T07:48:38.361Z,240.49
2023-05-05T07:49:38.346Z,242.54
2023-05-05T07:50:38.336Z,244.99
2023-05-05T07:51:38.338Z,243.75
2023-05-05T07:52:48.256Z,244.20
2023-05-05T07:53:38.328Z,244.56
2023-05-05T07:54:38.315Z,245.48
2023-05-05T07:55:38.361Z,248.56
2023-05-05T07:56:38.291Z,252.11
2023-05-05T07:57:38.281Z,258.93
2023-05-05T07:58:38.325Z,249.45
2023-05-05T07:59:38.270Z,241.65
2023-05-05T08:00:38.242Z,246.32
2023-05-05T08:01:38.241Z,247.80
2023-05-05T08:02:38.336Z,247.25
2023-05-05T08:03:38.575Z,244.98
2023-05-05T08:04:38.400Z,248.68
2023-05-05T08:05:38.941Z,249.63
2023-05-05T08:06:38.444Z,250.39
2023-05-05T08:07:38.531Z,250.00
2023-05-05T08:08:38.566Z,249.92
2023-05-05T08:09:38.647Z,245.54
2023-05-05T08:10:38.681Z,244.91
2023-05-05T08:11:39.461Z,247.78
2023-05-05T08:12:38.821Z,238.11
2023-05-05T08:13:38.873Z,238.62
2023-05-05T08:14:39.005Z,239.19
2023-05-05T08:15:39.045Z,245.25
2023-05-05T08:16:39.034Z,229.01
2023-05-05T08:17:39.167Z,214.06
2023-05-05T08:18:39.158Z,199.99
2023-05-05T08:19:39.224Z,183.03
2023-05-05T08:20:39.285Z,178.32
2023-05-05T08:21:39.341Z,183.21
2023-05-05T08:22:39.405Z,183.48
2023-05-05T08:23:39.457Z,178.22
2023-05-05T08:24:39.534Z,175.59
2023-05-05T08:25:39.569Z,183.18
2023-05-05T08:26:39.612Z,189.34
2023-05-05T08:27:39.654Z,182.93
2023-05-05T08:28:39.723Z,184.47
2023-05-05T08:29:39.758Z,192.57
2023-05-05T08:30:39.910Z,197.93
2023-05-05T08:31:40.016Z,195.74
2023-05-05T08:32:39.945Z,195.36
2023-05-05T08:33:39.958Z,206.12
2023-05-05T08:34:40.006Z,212.41
2023-05-05T08:35:40.052Z,207.46
2023-05-05T08:36:40.088Z,208.95
2023-05-05T08:37:40.153Z,207.28
2023-05-05T08:38:40.202Z,214.20
2023-05-05T08:39:40.226Z,218.14
2023-05-05T08:40:40.273Z,203.57
2023-05-05T08:41:40.300Z,209.81
2023-05-05T08:42:40.393Z,200.15
2023-05-05T08:43:40.370Z,202.36
2023-05-05T08:44:40.420Z,193.95
2023-05-05T08:45:41.371Z,205.35
2023-05-05T08:46:41.538Z,205.87
2023-05-05T08:47:40.474Z,207.10
2023-05-05T08:48:40.406Z,207.82
2023-05-05T08:49:40.381Z,214.32
2023-05-05T08:50:40.370Z,220.26
2023-05-05T08:51:40.366Z,225.79
2023-05-05T08:52:40.432Z,228.20
2023-05-05T08:53:40.332Z,232.29
2023-05-05T08:54:40.319Z,235.22
2023-05-05T08:55:40.293Z,240.57
2023-05-05T08:56:40.278Z,250.00
2023-05-05T08:57:40.942Z,250.02
2023-05-05T08:58:40.254Z,248.55
2023-05-05T08:59:40.229Z,241.72
2023-05-05T09:00:40.256Z,234.39
2023-05-05T09:01:40.190Z,231.32
2023-05-05T09:02:40.292Z,237.72
2023-05-05T09:03:40.142Z,234.40
2023-05-05T09:04:40.132Z,245.72
2023-05-05T09:05:40.101Z,249.68
2023-05-05T09:06:40.083Z,247.29
2023-05-05T09:07:40.062Z,250.00
2023-05-05T09:08:40.060Z,248.40
2023-05-05T09:09:40.049Z,244.56
2023-05-05T09:10:40.033Z,248.97
2023-05-05T09:11:39.992Z,249.14
2023-05-05T09:12:40.011Z,250.17
2023-05-05T09:13:40.018Z,250.00
2023-05-05T09:14:40.015Z,249.16
2023-05-05T09:15:40.045Z,241.74
2023-05-05T09:16:40.233Z,247.05
2023-05-05T09:17:40.105Z,237.22
2023-05-05T09:18:40.164Z,242.67
2023-05-05T09:19:40.469Z,248.43
2023-05-05T09:20:41.102Z,248.62
2023-05-05T09:21:40.083Z,248.90
2023-05-05T09:22:40.059Z,250.66
2023-05-05T09:23:40.175Z,253.70
2023-05-05T09:24:40.018Z,258.30
2023-05-05T09:25:40.004Z,249.95
2023-05-05T09:26:40.049Z,250.12
2023-05-05T09:27:40.100Z,250.00
2023-05-05T09:28:40.898Z,250.14
2023-05-05T09:29:40.042Z,250.44
2023-05-05T09:30:40.051Z,251.11
2023-05-05T09:31:40.016Z,253.74
2023-05-05T09:32:40.123Z,257.62
2023-05-05T09:33:39.997Z,249.70
2023-05-05T09:34:40.062Z,249.24
2023-05-05T09:35:39.991Z,248.70
2023-05-05T09:36:39.984Z,250.00
2023-05-05T09:37:39.980Z,250.00
2023-05-05T09:38:39.996Z,250.00
2023-05-05T09:39:40.033Z,249.25
2023-05-05T09:40:40.076Z,248.99
2023-05-05T09:41:40.139Z,249.64
2023-05-05T09:42:40.192Z,249.54
2023-05-05T09:43:40.236Z,249.73
2023-05-05T09:44:40.280Z,249.84
2023-05-05T09:45:40.364Z,249.35
2023-05-05T09:46:40.399Z,249.56
2023-05-05T09:47:40.497Z,249.32
2023-05-05T09:48:40.505Z,248.84
2023-05-05T09:49:40.566Z,250.00
2023-05-05T09:50:41.397Z,248.86
2023-05-05T09:51:40.676Z,249.16
2023-05-05T09:52:40.764Z,250.12
2023-05-05T09:53:40.831Z,248.56
2023-05-05T09:54:40.869Z,248.45
2023-05-05T09:55:40.944Z,248.03
2023-05-05T09:56:41.037Z,249.19
2023-05-05T09:57:41.078Z,249.58
2023-05-05T09:58:41.131Z,249.56
2023-05-05T09:59:42.410Z,249.01
2023-05-05T10:00:41.212Z,248.87
2023-05-05T10:01:41.347Z,249.65
2023-05-05T10:02:41.311Z,248.64
2023-05-05T10:03:41.331Z,248.61
2023-05-05T10:04:41.387Z,249.32
2023-05-05T10:05:41.408Z,248.27
2023-05-05T10:06:41.513Z,249.07
2023-05-05T10:07:41.529Z,249.10
2023-05-05T10:08:41.553Z,249.66
2023-05-05T10:09:41.637Z,248.92
2023-05-05T10:10:41.704Z,248.54
2023-05-05T10:11:41.758Z,248.93
2023-05-05T10:12:42.529Z,248.36
2023-05-05T10:13:41.988Z,249.18
2023-05-05T10:14:41.944Z,250.00
2023-05-05T10:15:42.106Z,246.85
2023-05-05T10:16:42.120Z,230.44
2023-05-05T10:17:47.871Z,206.55
2023-05-05T10:18:43.129Z,190.60
2023-05-05T10:19:42.096Z,142.28
2023-05-05T10:20:42.099Z,102.20
2023-05-05T10:21:43.402Z,85.12
2023-05-05T10:22:42.203Z,89.32
2023-05-05T10:23:42.081Z,75.58
2023-05-05T10:24:42.074Z,67.10
2023-05-05T10:25:42.038Z,63.95
2023-05-05T10:26:42.029Z,52.90
2023-05-05T10:27:42.019Z,58.66
2023-05-05T10:28:42.003Z,37.70
2023-05-05T10:29:41.984Z,40.47
2023-05-05T10:30:41.970Z,42.30
2023-05-05T10:31:42.048Z,39.85
2023-05-05T10:33:42.077Z,37.98
2023-05-05T10:34:42.035Z,32.99
2023-05-05T10:35:41.994Z,30.29
2023-05-05T10:36:41.967Z,26.19
2023-05-05T10:37:41.963Z,23.31
2023-05-05T10:38:42.012Z,28.80
2023-05-05T10:39:41.982Z,28.00
2023-05-05T10:40:41.919Z,25.25
2023-05-05T10:41:41.915Z,32.13
2023-05-05T10:42:41.910Z,28.72
2023-05-05T10:43:41.896Z,31.63
2023-05-05T10:44:41.873Z,36.18
2023-05-05T10:45:41.969Z,17.21
2023-05-05T10:46:41.921Z,26.44
2023-05-05T10:47:41.891Z,25.95
2023-05-05T10:48:41.877Z,24.79
2023-05-05T10:49:41.825Z,29.60
2023-05-05T10:50:41.814Z,34.30
2023-05-05T10:51:41.804Z,44.98
2023-05-05T10:52:41.789Z,41.65
2023-05-05T10:53:41.776Z,32.25
2023-05-05T10:54:41.865Z,28.68
2023-05-05T10:55:41.743Z,29.74
2023-05-05T10:56:41.718Z,19.98
2023-05-05T10:57:41.748Z,25.79
2023-05-05T10:58:58.388Z,28.40
2023-05-05T10:59:42.702Z,28.66
2023-05-05T11:00:41.685Z,30.64
2023-05-05T11:01:41.651Z,28.95
2023-05-05T11:02:41.739Z,30.69
2023-05-05T11:03:41.668Z,30.67
2023-05-05T11:04:41.606Z,16.79
2023-05-05T11:05:41.595Z,11.28
2023-05-05T11:06:41.584Z,20.32
2023-05-05T11:07:41.562Z,30.23
2023-05-05T11:08:41.550Z,36.99
2023-05-05T11:09:41.597Z,36.29
2023-05-05T11:10:41.652Z,40.41
2023-05-05T11:11:41.507Z,44.93
2023-05-05T11:12:41.500Z,46.63
2023-05-05T11:13:41.483Z,52.41
2023-05-05T11:14:41.486Z,54.91
2023-05-05T11:15:41.487Z,55.67
2023-05-05T11:16:41.485Z,59.40
2023-05-05T11:17:41.492Z,59.20
2023-05-05T11:18:41.440Z,60.39
2023-05-05T11:19:41.421Z,62.00
2023-05-05T11:20:41.451Z,63.95
2023-05-05T11:21:41.481Z,66.75
2023-05-05T11:22:41.515Z,70.74
2023-05-05T11:23:41.556Z,73.10
2023-05-05T11:24:41.590Z,74.13
2023-05-05T11:25:41.627Z,74.52
2023-05-05T11:26:41.718Z,79.43
2023-05-05T11:27:41.693Z,78.32
2023-05-05T11:28:41.725Z,83.34
2023-05-05T11:29:41.765Z,86.13
2023-05-05T11:30:41.842Z,86.81
2023-05-05T11:31:41.890Z,85.91
2023-05-05T11:32:41.928Z,86.68
2023-05-05T11:33:41.931Z,90.87
2023-05-05T11:34:41.984Z,94.55
2023-05-05T11:35:42.018Z,97.26
2023-05-05T11:36:42.082Z,98.66
2023-05-05T11:37:42.117Z,101.34
2023-05-05T11:38:42.166Z,100.41
2023-05-05T11:39:42.226Z,104.42
2023-05-05T11:40:42.247Z,104.02
2023-05-05T11:41:42.309Z,106.39
2023-05-05T11:42:42.348Z,107.25
2023-05-05T11:43:42.389Z,108.27
2023-05-05T11:44:42.439Z,106.78
2023-05-05T11:45:42.475Z,107.71
2023-05-05T11:46:42.539Z,110.75
2023-05-05T11:47:42.737Z,111.64
2023-05-05T11:48:42.629Z,114.98
2023-05-05T11:49:42.714Z,115.45
2023-05-05T11:50:42.716Z,114.80
2023-05-05T11:51:42.770Z,118.48
2023-05-05T11:52:42.819Z,118.18
2023-05-05T11:53:42.887Z,119.31
2023-05-05T11:54:42.937Z,122.03
2023-05-05T11:55:42.974Z,122.13
2023-05-05T11:56:43.027Z,123.16
2023-05-05T11:57:43.076Z,122.57
2023-05-05T11:58:43.230Z,123.12
2023-05-05T11:59:43.161Z,124.00
2023-05-05T12:00:43.219Z,126.80
2023-05-05T12:01:43.266Z,123.50
2023-05-05T12:02:43.390Z,126.77
2023-05-05T12:03:43.553Z,126.75
2023-05-05T12:04:43.443Z,128.00
2023-05-05T12:05:43.478Z,128.47
2023-05-05T12:06:43.518Z,130.59
2023-05-05T12:07:43.573Z,129.35
2023-05-05T12:08:43.627Z,132.36
2023-05-05T12:09:43.670Z,133.42
2023-05-05T12:10:43.715Z,133.61
2023-05-05T12:11:43.772Z,133.98
2023-05-05T12:12:43.858Z,135.31
2023-05-05T12:13:43.866Z,136.87
2023-05-05T12:14:43.997Z,137.65
2023-05-05T12:15:43.975Z,137.47
2023-05-05T12:16:44.124Z,137.52
2023-05-05T12:17:44.111Z,138.18
2023-05-05T12:18:44.109Z,138.79
2023-05-05T12:19:44.169Z,139.97
2023-05-05T12:20:44.231Z,140.64
2023-05-05T12:21:45.025Z,142.22
2023-05-05T12:22:44.349Z,143.04
2023-05-05T12:23:44.395Z,149.28
2023-05-05T12:24:44.461Z,151.75
2023-05-05T12:25:44.507Z,152.62
2023-05-05T12:26:44.574Z,158.00
2023-05-05T12:27:44.648Z,157.66
2023-05-05T12:28:44.710Z,157.59
2023-05-05T12:29:44.773Z,160.84
2023-05-05T12:30:44.931Z,162.96
2023-05-05T12:31:44.916Z,163.78
2023-05-05T12:32:45.012Z,165.06
2023-05-05T12:33:45.023Z,166.27